Time;durP1;ratioP1;P1;durP2;ratioP2;P2;SDS_P1;SDS_P2;PMS_P1;PMS_P2;Temp;Humidity;BMP_temperature;BMP_pressure;BME280_temperature;BME280_humidity;BME280_pressure;Samples;Min_cycle;Max_cycle;Signal;HPM_P1;HPM_P2
2020/12/07 00:00:24;;;;;;;17.83;10.17;;;2.00;99.90;;;;;;5050639;28;20466;-49
2020/12/07 00:02:51;;;;;;;17.17;9.90;;;1.90;99.90;;;;;;5050556;28;20487;-50
2020/12/07 00:05:18;;;;;;;17.63;10.20;;;2.00;99.90;;;;;;5050650;28;20455;-49
2020/12/07 00:07:45;;;;;;;15.50;8.70;;;2.00;99.90;;;;;;5050565;28;20448;-50
2020/12/07 00:10:12;;;;;;;13.80;8.73;;;2.00;99.90;;;;;;5050330;28;20455;-49
2020/12/07 00:12:38;;;;;;;12.37;8.30;;;1.90;99.90;;;;;;5050122;28;20479;-50
2020/12/07 00:15:06;;;;;;;11.40;7.20;;;1.90;99.90;;;;;;5050727;28;20497;-50
2020/12/07 00:17:33;;;;;;;13.00;8.13;;;1.90;99.90;;;;;;5051074;28;20456;-50
2020/12/07 00:19:59;;;;;;;12.57;8.50;;;1.90;99.90;;;;;;5050757;28;20816;-50
2020/12/07 00:22:29;;;;;;;11.70;7.70;;;1.90;99.90;;;;;;5050352;28;21061;-50
2020/12/07 00:24:56;;;;;;;10.83;7.43;;;1.90;99.90;;;;;;5050617;28;20451;-49
2020/12/07 00:27:23;;;;;;;14.20;8.63;;;1.90;99.90;;;;;;5049709;28;20493;-49
2020/12/07 00:29:50;;;;;;;11.00;7.47;;;1.70;99.90;;;;;;5050120;28;20516;-50
2020/12/07 00:32:16;;;;;;;16.47;8.90;;;1.60;99.90;;;;;;5050220;28;20498;-49
2020/12/07 00:34:43;;;;;;;15.27;9.40;;;1.70;99.90;;;;;;5050286;28;20485;-49
2020/12/07 00:37:10;;;;;;;12.43;8.10;;;1.60;99.90;;;;;;5049505;28;20462;-50
2020/12/07 00:39:37;;;;;;;12.97;8.33;;;1.60;99.90;;;;;;5050254;28;20439;-50
2020/12/07 00:42:04;;;;;;;14.70;9.50;;;1.70;99.90;;;;;;5049764;28;20471;-50
2020/12/07 00:44:31;;;;;;;14.27;8.90;;;1.60;99.90;;;;;;5050238;28;21073;-50
2020/12/07 00:46:58;;;;;;;14.77;8.73;;;1.70;99.90;;;;;;5050472;28;20505;-49
2020/12/07 00:49:24;;;;;;;14.40;8.50;;;1.70;99.90;;;;;;5050315;28;20451;-49
2020/12/07 00:51:51;;;;;;;14.63;8.90;;;1.70;99.90;;;;;;5049999;28;20544;-50
2020/12/07 00:54:18;;;;;;;13.03;8.63;;;1.60;99.90;;;;;;5050074;28;21007;-49
2020/12/07 00:56:45;;;;;;;17.47;9.40;;;1.70;99.90;;;;;;5049863;28;20455;-49
2020/12/07 00:59:12;;;;;;;15.90;9.30;;;1.70;99.90;;;;;;5049701;28;20462;-50
2020/12/07 01:01:39;;;;;;;13.83;8.70;;;1.60;99.90;;;;;;5051647;28;20992;-49
2020/12/07 01:04:06;;;;;;;17.20;9.00;;;1.60;99.90;;;;;;5054039;28;20489;-49
2020/12/07 01:06:33;;;;;;;14.20;9.40;;;1.60;99.90;;;;;;5053632;28;20474;-50
2020/12/07 01:09:00;;;;;;;15.97;8.80;;;1.60;99.90;;;;;;5053803;28;20455;-49
2020/12/07 01:11:26;;;;;;;12.30;8.13;;;1.60;99.90;;;;;;5053052;28;20442;-50
2020/12/07 01:13:58;;;;;;;16.03;9.27;;;1.60;99.90;;;;;;5053220;28;20451;-50
2020/12/07 01:16:25;;;;;;;18.13;9.97;;;1.60;99.90;;;;;;5053809;28;20455;-49
2020/12/07 01:18:52;;;;;;;17.70;9.33;;;1.60;99.90;;;;;;5053582;28;20447;-49
2020/12/07 01:21:19;;;;;;;17.20;9.90;;;1.60;99.90;;;;;;5053495;28;20497;-49
2020/12/07 01:23:45;;;;;;;17.50;9.70;;;1.60;99.90;;;;;;5053559;28;20486;-49
2020/12/07 01:26:12;;;;;;;20.77;11.00;;;1.70;99.90;;;;;;5053105;28;20466;-49
2020/12/07 01:28:39;;;;;;;17.50;9.50;;;1.60;99.90;;;;;;5052969;28;20450;-49
2020/12/07 01:31:06;;;;;;;14.87;9.10;;;1.60;99.90;;;;;;5053055;28;20462;-50
2020/12/07 01:33:33;;;;;;;16.17;9.27;;;1.50;99.90;;;;;;5053203;28;20517;-49
2020/12/07 01:36:00;;;;;;;17.57;9.63;;;1.40;99.90;;;;;;5053218;28;20454;-50
2020/12/07 01:38:26;;;;;;;15.37;9.27;;;1.40;99.90;;;;;;5053406;28;20455;-50
2020/12/07 01:40:53;;;;;;;17.33;9.27;;;1.50;99.90;;;;;;5053560;28;20451;-50
2020/12/07 01:43:19;;;;;;;11.43;7.87;;;1.50;99.90;;;;;;5053185;28;20520;-49
2020/12/07 01:45:46;;;;;;;12.97;7.70;;;1.40;99.90;;;;;;5052996;28;20455;-50
2020/12/07 01:48:14;;;;;;;11.50;7.60;;;1.50;99.90;;;;;;5053407;28;20451;-49
2020/12/07 01:50:42;;;;;;;12.83;7.93;;;1.50;99.90;;;;;;5052972;28;20463;-49
2020/12/07 01:53:09;;;;;;;14.70;8.40;;;1.50;99.90;;;;;;5052707;28;20472;-49
2020/12/07 01:55:37;;;;;;;13.53;8.27;;;1.60;99.90;;;;;;5053209;28;20530;-50
2020/12/07 01:58:04;;;;;;;14.63;8.23;;;1.50;99.90;;;;;;5053086;28;20443;-50
2020/12/07 02:00:30;;;;;;;11.27;7.63;;;1.50;99.90;;;;;;5052516;28;20834;-49
2020/12/07 02:02:57;;;;;;;14.57;8.67;;;1.60;99.90;;;;;;5052815;28;20486;-50
2020/12/07 02:05:27;;;;;;;13.60;7.83;;;1.60;99.90;;;;;;5052851;28;20504;-49
2020/12/07 02:08:14;;;;;;;14.80;8.40;;;1.50;99.90;;;;;;5052945;28;20463;-49
2020/12/07 02:10:41;;;;;;;11.10;6.90;;;1.50;99.90;;;;;;5053046;28;20450;-50
2020/12/07 02:13:08;;;;;;;12.27;7.50;;;1.50;99.90;;;;;;5077846;22;20492;-53
2020/12/07 02:15:35;;;;;;;11.00;6.63;;;1.50;99.90;;;;;;5053560;28;20455;-53
2020/12/07 02:18:02;;;;;;;10.03;6.40;;;1.60;99.90;;;;;;5054489;28;20444;-53
2020/12/07 02:20:29;;;;;;;12.40;6.80;;;1.60;99.90;;;;;;5057758;28;20450;-53
2020/12/07 02:22:56;;;;;;;15.60;7.07;;;1.50;99.90;;;;;;5057645;28;20490;-53
2020/12/07 02:25:23;;;;;;;10.40;6.40;;;1.50;99.90;;;;;;5057494;28;20451;-54
2020/12/07 02:27:52;;;;;;;11.37;7.20;;;1.50;99.90;;;;;;5057744;28;20477;-53
2020/12/07 02:30:20;;;;;;;10.50;6.20;;;1.60;99.90;;;;;;5057116;28;20497;-53
2020/12/07 02:32:47;;;;;;;10.83;6.20;;;1.60;99.90;;;;;;5057051;28;20480;-53
2020/12/07 02:35:14;;;;;;;12.00;7.60;;;1.50;99.90;;;;;;5057269;28;20447;-53
2020/12/07 02:37:43;;;;;;;11.13;6.33;;;1.50;99.90;;;;;;5056680;28;20455;-53
2020/12/07 02:40:11;;;;;;;9.23;6.33;;;1.50;99.90;;;;;;5056799;28;20459;-53
2020/12/07 02:42:39;;;;;;;12.57;7.10;;;1.50;99.90;;;;;;5055726;28;20495;-53
2020/12/07 02:45:07;;;;;;;10.63;6.83;;;1.60;99.90;;;;;;5057383;28;20941;-53
2020/12/07 02:47:34;;;;;;;8.80;5.57;;;1.50;99.90;;;;;;5057576;28;20451;-53
2020/12/07 02:50:01;;;;;;;10.37;6.13;;;1.50;99.90;;;;;;5057141;28;20443;-53
2020/12/07 02:52:28;;;;;;;9.33;6.40;;;1.60;99.90;;;;;;5057229;28;20466;-53
2020/12/07 02:54:57;;;;;;;11.27;6.37;;;1.70;99.90;;;;;;5056829;28;20467;-53
2020/12/07 02:57:24;;;;;;;9.90;6.60;;;1.70;99.90;;;;;;5056954;28;20829;-54
2020/12/07 02:59:51;;;;;;;8.97;6.27;;;1.60;99.90;;;;;;5056434;28;20501;-53
2020/12/07 03:02:18;;;;;;;10.77;6.10;;;1.60;99.90;;;;;;5056820;28;20516;-53
2020/12/07 03:04:45;;;;;;;9.83;6.27;;;1.60;99.90;;;;;;5056267;28;20483;-53
2020/12/07 03:07:12;;;;;;;8.83;5.53;;;1.70;99.90;;;;;;5052622;28;20451;-53
2020/12/07 03:09:39;;;;;;;7.83;5.37;;;1.70;99.90;;;;;;5051662;28;20504;-53
2020/12/07 03:12:07;;;;;;;7.97;5.43;;;1.70;99.90;;;;;;5051003;28;21042;-53
2020/12/07 03:14:34;;;;;;;7.43;5.30;;;1.60;99.90;;;;;;5051552;28;20443;-53
2020/12/07 03:17:01;;;;;;;8.00;6.00;;;1.60;99.90;;;;;;5051573;28;20501;-53
2020/12/07 03:19:27;;;;;;;9.10;5.57;;;1.60;99.90;;;;;;5051242;28;20454;-53
2020/12/07 03:21:55;;;;;;;8.13;5.80;;;1.60;99.90;;;;;;5051333;28;20941;-53
2020/12/07 03:24:21;;;;;;;8.40;5.63;;;1.50;99.90;;;;;;5051532;28;20490;-53
2020/12/07 03:26:48;;;;;;;10.47;6.80;;;1.60;99.90;;;;;;5051139;28;20448;-53
2020/12/07 03:29:15;;;;;;;8.13;6.20;;;1.60;99.90;;;;;;5062753;28;20459;-53
2020/12/07 03:31:42;;;;;;;10.77;6.80;;;1.50;99.90;;;;;;5069613;28;20446;-53
2020/12/07 03:34:10;;;;;;;10.13;6.97;;;1.50;99.90;;;;;;5069410;28;20519;-53
2020/12/07 03:36:37;;;;;;;9.77;6.70;;;1.50;99.90;;;;;;5070121;28;20454;-53
2020/12/07 03:39:04;;;;;;;8.83;6.03;;;1.50;99.90;;;;;;5069777;28;20528;-53
2020/12/07 03:41:31;;;;;;;9.90;6.23;;;1.40;99.90;;;;;;5069701;28;20453;-53
2020/12/07 03:43:59;;;;;;;8.60;6.37;;;1.40;99.90;;;;;;5069639;28;20539;-53
2020/12/07 03:46:27;;;;;;;8.87;6.00;;;1.50;99.90;;;;;;5069641;28;20446;-53
2020/12/07 03:48:58;;;;;;;8.97;6.23;;;1.50;99.90;;;;;;5069652;28;20435;-53
2020/12/07 03:51:25;;;;;;;10.63;6.87;;;1.60;99.90;;;;;;5069760;28;20438;-53
2020/12/07 03:53:51;;;;;;;11.10;7.10;;;1.50;99.90;;;;;;5069525;28;20462;-53
2020/12/07 03:56:18;;;;;;;9.60;7.00;;;1.60;99.90;;;;;;5069572;28;20946;-53
2020/12/07 03:58:44;;;;;;;9.40;6.50;;;1.50;99.90;;;;;;5069229;28;21103;-53
2020/12/07 04:01:11;;;;;;;10.27;7.23;;;1.60;99.90;;;;;;5069356;28;20450;-53
2020/12/07 04:03:40;;;;;;;11.10;7.00;;;1.50;99.90;;;;;;5069224;28;20485;-53
2020/12/07 04:06:11;;;;;;;10.93;6.80;;;1.50;99.90;;;;;;5069797;28;20454;-53
2020/12/07 04:08:37;;;;;;;14.00;7.70;;;1.40;99.90;;;;;;5069406;28;20439;-53
2020/12/07 04:11:04;;;;;;;18.10;8.00;;;1.40;99.90;;;;;;5069238;28;20442;-53
2020/12/07 04:13:32;;;;;;;30.67;9.10;;;1.40;99.90;;;;;;5068910;28;20476;-53
2020/12/07 04:15:59;;;;;;;12.50;7.23;;;1.30;99.90;;;;;;5069637;28;20452;-53
2020/12/07 04:18:26;;;;;;;12.23;7.77;;;1.20;99.90;;;;;;5069598;28;20446;-53
2020/12/07 04:20:53;;;;;;;14.20;7.87;;;1.30;99.90;;;;;;5069188;28;20431;-53
2020/12/07 04:23:21;;;;;;;10.67;7.13;;;1.30;99.90;;;;;;5067902;28;20488;-53
2020/12/07 04:25:48;;;;;;;15.87;7.77;;;1.20;99.90;;;;;;5069868;28;20438;-53
2020/12/07 04:28:14;;;;;;;14.43;7.20;;;1.20;99.90;;;;;;5069395;28;20446;-53
2020/12/07 04:30:41;;;;;;;15.33;7.53;;;1.10;99.90;;;;;;5069071;28;20434;-53
2020/12/07 04:33:07;;;;;;;11.73;6.83;;;1.10;99.90;;;;;;5069241;28;20466;-53
2020/12/07 04:35:34;;;;;;;17.53;6.80;;;1.10;99.90;;;;;;5069229;28;20492;-53
2020/12/07 04:38:02;;;;;;;13.20;7.37;;;1.10;99.90;;;;;;5068911;28;20500;-53
2020/12/07 04:40:29;;;;;;;10.93;7.27;;;1.10;99.90;;;;;;5072941;28;20438;-53
2020/12/07 04:42:56;;;;;;;13.90;7.67;;;1.10;99.90;;;;;;5072833;28;21119;-53
2020/12/07 04:45:23;;;;;;;13.67;7.90;;;1.10;99.90;;;;;;5073878;28;20438;-53
2020/12/07 04:47:51;;;;;;;14.40;7.30;;;1.20;99.90;;;;;;5074686;28;20801;-53
2020/12/07 04:50:18;;;;;;;11.77;7.70;;;1.30;99.90;;;;;;5074401;28;20484;-53
2020/12/07 04:52:45;;;;;;;15.07;8.23;;;1.30;99.90;;;;;;5060816;28;20502;-53
2020/12/07 04:55:13;;;;;;;12.63;7.20;;;1.20;99.90;;;;;;5060856;28;20447;-53
2020/12/07 04:57:41;;;;;;;12.67;7.47;;;1.30;99.90;;;;;;5070423;28;20420;-53
2020/12/07 05:00:08;;;;;;;14.50;7.50;;;1.30;99.90;;;;;;5070521;28;20437;-53
2020/12/07 05:02:37;;;;;;;15.90;9.00;;;1.20;99.90;;;;;;5072640;28;20821;-53
2020/12/07 05:05:04;;;;;;;12.60;7.60;;;1.20;99.90;;;;;;5073577;28;20536;-53
2020/12/07 05:07:32;;;;;;;13.83;7.70;;;1.20;99.90;;;;;;5073431;28;20963;-54
2020/12/07 05:09:59;;;;;;;15.60;7.60;;;1.30;99.90;;;;;;5073237;28;20474;-53
2020/12/07 05:12:36;;;;;;;13.60;7.73;;;1.20;99.90;;;;;;5071529;28;20503;-54
2020/12/07 05:15:09;;;;;;;15.27;8.60;;;1.30;99.90;;;;;;5073554;28;20465;-54
2020/12/07 05:17:37;;;;;;;14.33;8.10;;;1.20;99.90;;;;;;5073492;28;20484;-53
2020/12/07 05:20:04;;;;;;;13.90;7.90;;;1.20;99.90;;;;;;5072994;28;20482;-53
2020/12/07 05:22:31;;;;;;;12.57;7.30;;;1.30;99.90;;;;;;5073104;28;20466;-54
2020/12/07 05:24:57;;;;;;;15.77;8.60;;;1.40;99.90;;;;;;5073175;28;20485;-54
2020/12/07 05:27:28;;;;;;;13.63;7.47;;;1.40;99.90;;;;;;5072997;28;21139;-53
2020/12/07 05:30:05;;;;;;;13.47;8.00;;;1.30;99.90;;;;;;5073002;28;20442;-54
2020/12/07 05:32:33;;;;;;;16.40;7.50;;;1.30;99.90;;;;;;5068856;28;20484;-53
2020/12/07 05:35:01;;;;;;;10.80;6.90;;;1.40;99.90;;;;;;5072926;28;20438;-54
2020/12/07 05:37:31;;;;;;;14.70;7.80;;;1.50;99.90;;;;;;5073037;28;20443;-53
2020/12/07 05:40:01;;;;;;;16.63;8.40;;;1.40;99.90;;;;;;5065100;28;20445;-53
2020/12/07 05:42:30;;;;;;;11.90;7.17;;;1.50;99.90;;;;;;5072625;28;20469;-54
2020/12/07 05:44:58;;;;;;;17.30;7.63;;;1.40;99.90;;;;;;5068853;28;20522;-53
2020/12/07 05:47:25;;;;;;;15.40;8.50;;;1.30;99.90;;;;;;5065297;28;20450;-53
2020/12/07 05:49:53;;;;;;;13.57;7.33;;;1.30;99.90;;;;;;5072346;28;20439;-53
2020/12/07 05:52:29;;;;;;;14.07;7.67;;;1.20;99.90;;;;;;5068806;28;20481;-53
2020/12/07 05:54:57;;;;;;;17.67;8.47;;;1.40;99.90;;;;;;5072896;28;20886;-54
2020/12/07 05:57:30;;;;;;;13.87;8.90;;;1.40;99.90;;;;;;5070870;28;20449;-53
2020/12/07 06:00:01;;;;;;;14.10;8.70;;;1.40;99.90;;;;;;5071562;28;20508;-53
2020/12/07 06:02:28;;;;;;;13.20;8.17;;;1.50;99.90;;;;;;5066174;28;20502;-53
2020/12/07 06:04:55;;;;;;;15.67;8.50;;;1.60;99.90;;;;;;5067551;28;20477;-53
2020/12/07 06:07:28;;;;;;;14.67;8.40;;;1.60;99.90;;;;;;5067032;28;20450;-53
2020/12/07 06:09:57;;;;;;;19.57;9.80;;;1.70;99.90;;;;;;5062468;28;20533;-53
2020/12/07 06:12:30;;;;;;;18.03;9.93;;;1.60;99.90;;;;;;5072412;28;20471;-53
2020/12/07 06:14:59;;;;;;;18.73;10.67;;;1.60;99.90;;;;;;5070030;28;20449;-53
2020/12/07 06:17:30;;;;;;;21.77;10.80;;;1.80;99.90;;;;;;5072108;28;20512;-53
2020/12/07 06:19:57;;;;;;;20.50;9.57;;;1.60;99.90;;;;;;5072088;28;20457;-53
2020/12/07 06:22:24;;;;;;;18.73;9.00;;;1.70;99.90;;;;;;5071995;28;20497;-53
2020/12/07 06:24:52;;;;;;;15.90;8.70;;;1.60;99.90;;;;;;5068535;28;21051;-53
2020/12/07 06:27:19;;;;;;;19.17;10.60;;;1.70;99.90;;;;;;5065612;28;20542;-53
2020/12/07 06:30:01;;;;;;;14.47;9.13;;;1.60;99.90;;;;;;5055521;28;20957;-53
2020/12/07 06:32:51;;;;;;;23.00;10.30;;;1.60;99.90;;;;;;5052481;28;20471;-53
2020/12/07 06:35:18;;;;;;;14.40;8.17;;;1.70;99.90;;;;;;5052267;28;20685;-53
2020/12/07 06:37:47;;;;;;;13.87;8.23;;;1.80;99.90;;;;;;5050741;28;20451;-53
2020/12/07 06:40:15;;;;;;;15.83;9.50;;;1.80;99.90;;;;;;5051962;28;20435;-53
2020/12/07 06:42:44;;;;;;;15.40;7.90;;;1.80;99.90;;;;;;5051822;28;20464;-53
2020/12/07 06:45:22;;;;;;;14.00;7.73;;;1.70;99.90;;;;;;5052105;28;20482;-53
2020/12/07 06:47:51;;;;;;;13.97;8.00;;;1.70;99.90;;;;;;5051618;28;20446;-53
2020/12/07 06:50:21;;;;;;;18.37;8.43;;;1.70;99.90;;;;;;5051652;28;20478;-53
2020/12/07 06:52:48;;;;;;;14.37;8.30;;;1.50;99.90;;;;;;5052162;28;20554;-53
2020/12/07 06:55:16;;;;;;;15.17;7.77;;;1.70;99.90;;;;;;5050523;28;20444;-53
2020/12/07 06:57:45;;;;;;;15.33;8.07;;;1.60;99.90;;;;;;5051375;28;20839;-53
2020/12/07 07:00:15;;;;;;;12.37;7.57;;;1.70;99.90;;;;;;5051014;28;20462;-53
2020/12/07 07:02:43;;;;;;;16.23;8.70;;;1.60;99.90;;;;;;5050161;28;20518;-53
2020/12/07 07:05:11;;;;;;;15.03;8.70;;;1.60;99.90;;;;;;5050927;28;20484;-52
2020/12/07 07:07:38;;;;;;;16.10;8.70;;;1.80;99.90;;;;;;5050425;28;20456;-53
2020/12/07 07:10:06;;;;;;;21.00;10.33;;;1.70;99.90;;;;;;5050674;28;20455;-53
2020/12/07 07:12:33;;;;;;;19.50;9.90;;;1.60;99.90;;;;;;5050978;28;20478;-53
2020/12/07 07:14:59;;;;;;;15.20;7.57;;;1.40;99.90;;;;;;5058619;28;21291;-52
2020/12/07 07:17:28;;;;;;;21.10;8.50;;;1.40;99.90;;;;;;5061777;28;20858;-53
2020/12/07 07:19:55;;;;;;;18.07;8.73;;;1.50;99.90;;;;;;5068652;28;20446;-52
2020/12/07 07:22:22;;;;;;;22.87;10.50;;;1.60;99.90;;;;;;5069410;28;20466;-52
2020/12/07 07:24:55;;;;;;;19.57;10.23;;;1.70;99.90;;;;;;5069966;28;20478;-52
2020/12/07 07:30:06;;;;;;;18.90;10.10;;;1.70;99.90;;;;;;5069518;28;20422;-53
2020/12/07 07:32:34;;;;;;;21.77;9.90;;;1.50;99.90;;;;;;5069270;28;20465;-53
2020/12/07 07:35:01;;;;;;;19.57;9.37;;;1.40;99.90;;;;;;5069403;28;20450;-53
2020/12/07 07:37:28;;;;;;;21.77;10.10;;;1.40;99.90;;;;;;5069505;28;20450;-53
2020/12/07 07:40:03;;;;;;;25.10;10.30;;;1.40;99.90;;;;;;5069492;28;20446;-52
2020/12/07 07:42:30;;;;;;;19.97;9.43;;;1.40;99.90;;;;;;5069147;28;20465;-53
2020/12/07 07:44:58;;;;;;;20.33;10.40;;;1.40;99.90;;;;;;5069487;28;20482;-53
2020/12/07 07:47:30;;;;;;;18.77;10.10;;;1.40;99.90;;;;;;5069253;28;20461;-52
2020/12/07 08:17:47;;;;;;;22.87;10.40;;;1.90;99.90;;;;;;5068875;28;20429;-53
2020/12/07 08:20:14;;;;;;;25.37;11.20;;;1.90;99.90;;;;;;5044908;28;20440;-52
2020/12/07 08:22:42;;;;;;;30.30;11.40;;;1.80;99.90;;;;;;5049799;28;20477;-52
2020/12/07 08:25:08;;;;;;;33.47;13.33;;;1.80;99.90;;;;;;5081143;22;20505;-49
2020/12/07 08:27:36;;;;;;;29.80;13.17;;;1.70;99.90;;;;;;5079299;28;20480;-50
2020/12/07 08:30:04;;;;;;;34.40;14.30;;;1.70;99.90;;;;;;5069483;28;20461;-50
2020/12/07 08:32:30;;;;;;;32.30;13.57;;;1.80;99.90;;;;;;5085156;28;20767;-49
2020/12/07 08:34:57;;;;;;;31.17;13.73;;;1.70;99.90;;;;;;5090492;28;20955;-49
2020/12/07 08:37:24;;;;;;;30.47;12.37;;;1.60;99.90;;;;;;5090009;28;20864;-50
2020/12/07 08:39:52;;;;;;;23.53;11.50;;;1.70;99.90;;;;;;5079408;28;20452;-49
2020/12/07 08:42:19;;;;;;;22.90;10.50;;;1.70;99.90;;;;;;5060078;28;20487;-50
2020/12/07 08:44:45;;;;;;;20.03;10.57;;;1.60;99.90;;;;;;5049766;28;20510;-50
2020/12/07 08:47:12;;;;;;;22.80;11.03;;;1.60;99.90;;;;;;5066510;28;20469;-49
2020/12/07 08:49:39;;;;;;;22.20;10.80;;;1.50;99.90;;;;;;5069688;28;20450;-50
2020/12/07 08:52:05;;;;;;;19.73;10.70;;;1.60;99.90;;;;;;5070051;28;20446;-50
2020/12/07 08:54:32;;;;;;;23.40;10.13;;;1.60;99.90;;;;;;5069838;28;20446;-50
2020/12/07 08:57:00;;;;;;;16.23;8.70;;;1.80;99.90;;;;;;5069963;28;20454;-49
2020/12/07 08:59:26;;;;;;;18.30;9.77;;;1.80;99.90;;;;;;5052266;28;20439;-50
2020/12/07 09:01:53;;;;;;;22.03;10.10;;;1.70;99.90;;;;;;5049758;28;20455;-49
2020/12/07 09:04:19;;;;;;;17.93;9.33;;;1.90;99.90;;;;;;5049492;28;21027;-50
2020/12/07 09:06:49;;;;;;;17.43;9.10;;;2.00;99.90;;;;;;5049755;28;20521;-49
2020/12/07 09:09:15;;;;;;;23.70;10.60;;;1.90;99.90;;;;;;5049463;28;20483;-50
2020/12/07 09:11:42;;;;;;;19.77;11.03;;;2.00;99.90;;;;;;5064293;28;20506;-49
2020/12/07 09:14:10;;;;;;;27.70;11.00;;;2.10;99.90;;;;;;5066102;28;20454;-49
2020/12/07 09:16:37;;;;;;;22.10;10.00;;;2.20;99.90;;;;;;5066527;28;20459;-49
2020/12/07 09:19:03;;;;;;;21.20;10.90;;;2.30;99.90;;;;;;5068499;28;20817;-49
2020/12/07 09:21:30;;;;;;;24.70;12.43;;;2.50;99.90;;;;;;5071923;28;20450;-49
2020/12/07 09:23:57;;;;;;;20.33;10.93;;;2.60;99.90;;;;;;5071938;28;20873;-48
2020/12/07 09:26:23;;;;;;;21.60;11.40;;;2.70;99.90;;;;;;5073112;28;20474;-49
2020/12/07 09:28:49;;;;;;;19.70;11.30;;;2.80;99.90;;;;;;5073043;28;20823;-48
2020/12/07 09:31:17;;;;;;;19.23;10.30;;;2.80;99.90;;;;;;5073079;28;20474;-48
2020/12/07 09:33:43;;;;;;;20.10;9.80;;;2.80;99.90;;;;;;5072609;28;20836;-49
2020/12/07 09:36:10;;;;;;;19.00;10.20;;;2.90;99.90;;;;;;5064040;28;20471;-49
2020/12/07 09:38:36;;;;;;;31.63;10.90;;;3.00;99.90;;;;;;5052878;28;20470;-50
2020/12/07 09:41:03;;;;;;;17.00;9.77;;;3.00;99.90;;;;;;5062683;28;20470;-49
2020/12/07 09:43:29;;;;;;;18.90;9.60;;;3.10;99.90;;;;;;5054906;28;20447;-51
2020/12/07 09:45:56;;;;;;;17.77;9.30;;;3.10;99.90;;;;;;5064568;28;20693;-49
2020/12/07 09:48:23;;;;;;;23.40;10.47;;;3.10;99.90;;;;;;5052972;28;20462;-49
2020/12/07 09:50:50;;;;;;;15.77;9.10;;;3.30;99.90;;;;;;5062789;28;20443;-51
2020/12/07 09:53:18;;;;;;;14.70;9.30;;;3.50;99.90;;;;;;5072642;28;20945;-51
2020/12/07 09:55:46;;;;;;;16.10;9.27;;;3.50;99.90;;;;;;5072475;28;20532;-51
2020/12/07 09:58:12;;;;;;;16.77;9.50;;;3.60;99.90;;;;;;5072095;28;20447;-50
2020/12/07 10:00:39;;;;;;;17.03;8.90;;;4.20;99.90;;;;;;5072049;28;20955;-50
2020/12/07 10:03:06;;;;;;;16.37;8.87;;;4.60;99.90;;;;;;5061684;28;20993;-51
2020/12/07 10:05:33;;;;;;;11.37;7.30;;;5.20;99.90;;;;;;5052539;28;20852;-50
2020/12/07 10:08:00;;;;;;;14.57;8.27;;;5.60;99.90;;;;;;5062132;28;20448;-50
2020/12/07 10:10:26;;;;;;;14.03;7.63;;;5.80;99.90;;;;;;5072519;28;20439;-50
2020/12/07 10:12:53;;;;;;;13.40;8.40;;;5.60;99.90;;;;;;5072578;28;20447;-49
2020/12/07 10:15:19;;;;;;;14.23;8.60;;;5.30;99.90;;;;;;5072683;28;20459;-49
2020/12/07 10:17:46;;;;;;;15.67;8.53;;;5.00;99.90;;;;;;5069047;28;20445;-49
2020/12/07 10:20:12;;;;;;;14.20;8.47;;;5.10;99.90;;;;;;5071661;28;20439;-50
2020/12/07 10:22:40;;;;;;;14.77;8.73;;;5.10;99.90;;;;;;5073779;28;20960;-49
2020/12/07 10:25:06;;;;;;;15.50;8.67;;;5.10;99.90;;;;;;5071931;28;20493;-50
2020/12/07 10:27:33;;;;;;;17.10;8.57;;;5.00;99.90;;;;;;5071437;28;20447;-49
2020/12/07 10:29:59;;;;;;;14.60;9.07;;;4.90;99.90;;;;;;5070986;28;20458;-49
2020/12/07 10:32:26;;;;;;;14.60;8.63;;;4.80;99.90;;;;;;5064295;28;20450;-49
2020/12/07 10:34:52;;;;;;;14.90;9.40;;;4.80;99.90;;;;;;5069972;28;20450;-49
2020/12/07 10:37:20;;;;;;;15.20;8.80;;;4.80;99.90;;;;;;5068991;28;20444;-49
2020/12/07 10:39:48;;;;;;;16.40;9.20;;;5.10;99.90;;;;;;5070615;28;20431;-49
2020/12/07 10:42:14;;;;;;;14.87;8.73;;;5.30;99.90;;;;;;5070568;28;20442;-49
2020/12/07 10:44:41;;;;;;;17.43;9.67;;;5.10;99.90;;;;;;5070574;28;20490;-49
2020/12/07 10:47:07;;;;;;;15.97;9.07;;;4.90;99.90;;;;;;5070154;28;20967;-48
2020/12/07 10:49:35;;;;;;;14.63;8.60;;;5.00;99.90;;;;;;5070138;28;20452;-49
2020/12/07 10:52:01;;;;;;;19.50;10.20;;;5.20;99.90;;;;;;5070328;28;20479;-50
2020/12/07 10:54:28;;;;;;;18.90;10.40;;;5.40;99.90;;;;;;5070233;28;20435;-49
2020/12/07 10:56:55;;;;;;;17.60;10.00;;;5.60;99.90;;;;;;5070164;28;20466;-48
2020/12/07 10:59:22;;;;;;;16.23;10.00;;;5.50;99.90;;;;;;5070074;28;20448;-49
2020/12/07 11:01:53;;;;;;;16.17;9.47;;;5.70;99.90;;;;;;5070150;28;20435;-48
2020/12/07 11:04:19;;;;;;;17.90;9.60;;;5.40;99.90;;;;;;5069876;28;20488;-49
2020/12/07 11:06:48;;;;;;;17.20;9.67;;;5.50;99.90;;;;;;5070014;28;20995;-49
2020/12/07 11:09:22;;;;;;;33.37;14.20;;;5.60;99.90;;;;;;5069706;28;20454;-51
2020/12/07 11:11:49;;;;;;;22.80;11.40;;;5.60;99.90;;;;;;5070389;28;20517;-49
2020/12/07 11:14:16;;;;;;;24.73;13.17;;;5.70;99.90;;;;;;5070173;28;20441;-49
2020/12/07 11:16:43;;;;;;;24.40;13.10;;;5.80;99.90;;;;;;5069760;28;21003;-49
2020/12/07 11:19:09;;;;;;;27.17;13.60;;;5.90;99.90;;;;;;5059582;28;20513;-49
2020/12/07 11:21:36;;;;;;;31.13;14.37;;;5.70;99.90;;;;;;5070678;28;20455;-49
2020/12/07 11:24:02;;;;;;;32.27;14.87;;;5.60;99.90;;;;;;5068775;28;20458;-49
2020/12/07 11:26:29;;;;;;;20.77;10.93;;;5.70;99.90;;;;;;5059298;28;20906;-49
2020/12/07 11:28:55;;;;;;;23.53;12.10;;;5.60;99.90;;;;;;5066427;28;20458;-50
2020/12/07 11:31:23;;;;;;;20.70;11.47;;;5.50;99.90;;;;;;5063454;28;20463;-49
2020/12/07 11:33:49;;;;;;;20.90;11.77;;;5.40;99.90;;;;;;5069379;28;20447;-48
2020/12/07 11:36:17;;;;;;;17.60;10.27;;;5.30;99.90;;;;;;5069053;28;20463;-49
2020/12/07 11:38:47;;;;;;;15.70;9.67;;;5.10;99.90;;;;;;5066638;28;20447;-49
2020/12/07 11:41:28;;;;;;;17.43;10.27;;;4.80;99.90;;;;;;5069502;28;20489;-49
2020/12/07 11:44:10;;;;;;;19.53;10.80;;;4.50;99.90;;;;;;5069119;28;20443;-48
2020/12/07 11:46:40;;;;;;;19.40;9.77;;;4.40;99.90;;;;;;5068153;28;20458;-49
2020/12/07 11:49:06;;;;;;;18.93;10.97;;;4.30;99.90;;;;;;5068754;28;20963;-49
2020/12/07 11:51:33;;;;;;;18.10;10.25;;;3.80;99.90;;;;;;5069114;28;20445;-49
2020/12/07 11:54:04;;;;;;;21.90;11.10;;;3.70;99.90;;;;;;5069293;28;20224;-49
2020/12/07 11:56:32;;;;;;;17.43;9.60;;;3.60;99.90;;;;;;5068897;28;20462;-49
2020/12/07 11:59:04;;;;;;;17.27;10.23;;;3.70;99.90;;;;;;5068860;28;20446;-49
2020/12/07 12:01:31;;;;;;;22.50;11.10;;;3.70;99.90;;;;;;5069429;28;20443;-50
2020/12/07 12:04:03;;;;;;;19.50;11.30;;;3.80;99.90;;;;;;5069061;28;20550;-49
2020/12/07 12:06:34;;;;;;;20.53;11.53;;;3.90;99.90;;;;;;5068895;28;20524;-49
2020/12/07 12:09:05;;;;;;;25.23;13.00;;;4.10;99.90;;;;;;5068677;28;21006;-50
2020/12/07 12:11:33;;;;;;;21.97;12.50;;;4.10;99.90;;;;;;5068721;28;20453;-49
2020/12/07 12:14:00;;;;;;;21.23;12.40;;;4.30;99.90;;;;;;5068603;28;20439;-49
2020/12/07 12:16:27;;;;;;;23.40;15.10;;;4.40;99.90;;;;;;5068725;28;21313;-49
2020/12/07 12:18:59;;;;;;;21.60;13.30;;;4.60;99.90;;;;;;5068887;28;20439;-49
2020/12/07 12:21:28;;;;;;;17.83;10.97;;;4.70;99.90;;;;;;5069033;28;20443;-49
2020/12/07 12:23:55;;;;;;;18.43;11.43;;;4.80;99.90;;;;;;5068688;28;20450;-50
2020/12/07 12:26:22;;;;;;;19.13;11.60;;;4.90;99.90;;;;;;5068378;28;20497;-49
2020/12/07 12:28:49;;;;;;;21.10;11.87;;;5.00;99.90;;;;;;5068692;28;20446;-49
2020/12/07 12:31:16;;;;;;;19.17;12.13;;;5.10;99.90;;;;;;5068940;28;20435;-49
2020/12/07 12:33:44;;;;;;;21.10;12.23;;;5.10;99.90;;;;;;5068747;28;20910;-49
2020/12/07 12:36:14;;;;;;;17.67;11.60;;;5.20;99.90;;;;;;5068619;28;20970;-48
2020/12/07 12:38:42;;;;;;;19.90;11.50;;;5.20;99.90;;;;;;5068427;28;20431;-49
2020/12/07 12:41:08;;;;;;;18.70;11.60;;;5.20;99.90;;;;;;5068467;28;20998;-49
2020/12/07 12:43:35;;;;;;;20.40;12.43;;;5.20;99.90;;;;;;5064836;28;20439;-49
2020/12/07 12:46:03;;;;;;;25.67;13.70;;;5.00;99.90;;;;;;5068526;28;20482;-49
2020/12/07 12:48:30;;;;;;;26.93;13.47;;;5.00;99.90;;;;;;5068543;28;20441;-49
2020/12/07 12:50:56;;;;;;;22.77;13.50;;;5.00;99.90;;;;;;5068681;28;20542;-49
2020/12/07 12:53:23;;;;;;;22.83;13.13;;;5.00;99.90;;;;;;5068530;28;20439;-49
2020/12/07 12:55:51;;;;;;;22.10;12.87;;;5.00;99.90;;;;;;5068608;28;20450;-49
2020/12/07 12:58:18;;;;;;;19.93;12.40;;;4.90;99.90;;;;;;5071066;28;20434;-50
2020/12/07 13:00:45;;;;;;;20.13;12.20;;;5.00;99.90;;;;;;5073107;28;20453;-49
2020/12/07 13:03:12;;;;;;;20.87;12.10;;;5.10;99.90;;;;;;5072835;28;20450;-50
2020/12/07 13:05:39;;;;;;;20.80;11.60;;;5.10;99.90;;;;;;5073609;28;20495;-50
2020/12/07 13:08:05;;;;;;;17.17;10.87;;;5.30;99.90;;;;;;5059981;28;20449;-50
2020/12/07 13:10:32;;;;;;;15.60;10.33;;;5.30;99.90;;;;;;5053568;28;20444;-50
2020/12/07 13:12:59;;;;;;;17.80;10.57;;;5.20;99.90;;;;;;5053440;28;20452;-50
2020/12/07 13:15:27;;;;;;;16.67;9.90;;;5.10;99.90;;;;;;5054424;28;20476;-50
2020/12/07 13:17:56;;;;;;;17.20;10.07;;;5.00;99.90;;;;;;5053559;28;20479;-50